Oscoda, MI

4:29 AM EST on November 17, 2019 (GMT -0500)
Oscoda-Wurtsmith

Weather History for KOSC - September, 2019

Change the Weather History Date:

Sunday, September 15, 2019

  Actual Average Record
Temperature  
Mean Temperature 56 °F -  
Max Temperature 64 °F 70 °F 84 °F (2004)
Min Temperature 49 °F 50 °F 33 °F (2011)
Degree Days  
Heating Degree Days 8    
Growing Degree Days 6 (Base 50)    
Moisture  
Dew Point 56 °F    
Average Humidity 89    
Maximum Humidity 100    
Minimum Humidity 78    
Precipitation  
Precipitation 0.25 in - - ()
Sea Level Pressure  
Sea Level Pressure 30.12 in    
Wind  
Wind Speed 4 mph (ESE)    
Max Wind Speed 13 mph    
Max Gust Speed 9 mph    
Visibility 10 miles    
Events Rain    
Averages and records for this station are not official NWS values.
T = Trace of Precipitation, MM = Missing Value Source: NWS Daily Summary

Daily Weather History Graph

Daily Weather History Graph

Search for Another Location

Airport or City:

Astronomy

Sep. 15, 2019 Rise Set
Actual Time 7:12 AM EDT 7:44 PM EDT
Civil Twilight 6:42 AM EDT 8:13 PM EDT
Nautical Twilight 6:08 AM EDT 8:48 PM EDT
Astronomical Twilight 5:32 AM EDT 9:23 PM EDT
Moon 8:49 PM EDT (9/15) 8:22 AM EDT (9/15)
Length of Visible Light 13h 30m
Length of Day
12h 32m
Full, 98% of the Moon is Illuminated
Sep 15
Full
Sep 21
Last Quarter
Sep 28
New
Oct 5
First Quarter
Oct 13
Full

Hourly Weather History & Observations

Time (EDT) Temp. Dew Point Humidity Pressure Visibility Wind Dir Wind Speed Gust Speed Precip Events Conditions
12:15 AM 51.3 °F 47.5 °F 87% 30.15 in 10.0 mi WSW 3.5 mph - N/A   Clear
12:39 AM 51.1 °F 48.0 °F 89% 30.15 in 10.0 mi WSW 3.5 mph - N/A   Clear
12:57 AM 49.1 °F 45.7 °F 88% 30.15 in 10.0 mi West 3.5 mph - N/A   Clear
1:15 AM 50.5 °F 47.1 °F 88% 30.15 in 10.0 mi SW 4.6 mph - N/A   Clear
1:16 AM 50.5 °F 47.1 °F 88% 30.15 in 10.0 mi WSW 4.6 mph - N/A   Clear
1:35 AM 49.3 °F 48.2 °F 96% 30.16 in 10.0 mi Calm Calm - N/A   Scattered Clouds
1:55 AM 50.7 °F 48.7 °F 93% 30.16 in 10.0 mi Calm Calm - N/A   Mostly Cloudy
2:18 AM 51.8 °F 50.2 °F 94% 30.18 in 10.0 mi WSW 3.5 mph - N/A   Overcast
2:36 AM 52.9 °F 50.0 °F 90% 30.17 in 10.0 mi Calm Calm - N/A   Overcast
2:55 AM 53.8 °F 49.6 °F 86% 30.16 in 10.0 mi Calm Calm - N/A   Overcast
3:15 AM 54.7 °F 50.4 °F 85% 30.16 in 10.0 mi Calm Calm - N/A   Mostly Cloudy
3:39 AM 54.9 °F 50.5 °F 85% 30.14 in 10.0 mi Calm Calm - N/A   Overcast
3:57 AM 54.7 °F 50.2 °F 85% 30.14 in 10.0 mi Calm Calm - N/A   Scattered Clouds
4:15 AM 54.5 °F 51.1 °F 88% 30.14 in 10.0 mi NE 4.6 mph - N/A   Mostly Cloudy
4:35 AM 54.1 °F 50.0 °F 86% 30.14 in 10.0 mi Calm Calm - N/A   Scattered Clouds
4:55 AM 52.7 °F 50.9 °F 94% 30.14 in 10.0 mi Calm Calm - N/A   Mostly Cloudy
5:18 AM 53.6 °F 51.3 °F 92% 30.13 in 10.0 mi Calm Calm - N/A   Mostly Cloudy
5:36 AM 53.2 °F 51.8 °F 95% 30.15 in 10.0 mi West 4.6 mph - N/A   Mostly Cloudy
5:55 AM 54.5 °F 53.6 °F 97% 30.14 in 7.0 mi Calm Calm - 0.01 in Rain Light Rain
6:15 AM 55.2 °F 54.7 °F 98% 30.14 in 7.0 mi North 6.9 mph - 0.01 in Rain Light Rain
6:39 AM 57.2 °F 57.2 °F 100% 30.17 in 10.0 mi NNW 9.2 mph - 0.02 in Rain Rain
6:57 AM 55.8 °F 55.8 °F 100% 30.18 in 2.5 mi NNW 5.8 mph 9.2 mph 0.09 in Rain Light Rain
7:15 AM 58.5 °F 58.5 °F 100% 30.10 in 5.0 mi ESE 12.7 mph - 0.09 in Rain Light Rain
7:35 AM 59.9 °F 59.9 °F 100% 30.13 in 10.0 mi SE 6.9 mph - 0.09 in   Overcast
7:36 AM 59.9 °F 59.9 °F 100% 30.13 in 10.0 mi SE 6.9 mph - 0.09 in Rain Rain
7:55 AM 59.9 °F 59.5 °F 99% 30.13 in 10.0 mi Calm Calm - 0.09 in Rain Rain
8:00 AM 59.7 °F 59.4 °F 99% 30.14 in 10.0 mi Calm Calm - N/A Rain Light Rain
8:18 AM 59.9 °F 59.4 °F 98% 30.14 in 10.0 mi SE 5.8 mph - N/A   Overcast
8:36 AM 59.9 °F 59.0 °F 97% 30.14 in 10.0 mi Calm Calm - N/A   Overcast
8:55 AM 59.5 °F 59.0 °F 98% 30.14 in 4.0 mi ESE 4.6 mph - 0.05 in Rain Light Rain
8:56 AM 59.5 °F 59.0 °F 98% 30.14 in 5.0 mi ESE 4.6 mph - 0.05 in Rain Light Rain
9:15 AM 59.9 °F 58.3 °F 94% 30.15 in 10.0 mi SE 4.6 mph - N/A   Overcast
9:16 AM 59.9 °F 58.5 °F 95% 30.15 in 10.0 mi SE 4.6 mph - N/A Rain Rain
9:39 AM 59.9 °F 58.5 °F 95% 30.15 in 10.0 mi SE 3.5 mph - N/A Rain Light Rain
9:57 AM 59.9 °F 58.3 °F 94% 30.15 in 10.0 mi ESE 5.8 mph - 0.01 in   Overcast
10:15 AM 60.1 °F 58.3 °F 94% 30.15 in 10.0 mi ESE 4.6 mph - N/A   Overcast
10:35 AM 60.4 °F 58.3 °F 93% 30.15 in 10.0 mi East 5.8 mph - N/A   Overcast
10:36 AM 60.4 °F 58.3 °F 93% 30.15 in 10.0 mi ESE 5.8 mph - N/A   Overcast
10:55 AM 60.8 °F 59.0 °F 94% 30.15 in 10.0 mi East 5.8 mph - N/A   Overcast
11:00 AM 60.8 °F 58.1 °F 91% 30.15 in 10.0 mi ESE 5.8 mph - N/A   Overcast
11:18 AM 61.2 °F 58.1 °F 90% 30.14 in 10.0 mi East 6.9 mph - N/A   Overcast
11:36 AM 61.3 °F 58.1 °F 89% 30.14 in 10.0 mi East 5.8 mph - N/A   Overcast
11:55 AM 61.5 °F 58.6 °F 90% 30.14 in 10.0 mi East 6.9 mph - N/A   Overcast
12:15 PM 61.7 °F 59.0 °F 91% 30.14 in 10.0 mi ESE 6.9 mph - N/A   Overcast
12:16 PM 61.7 °F 59.0 °F 91% 30.14 in 10.0 mi East 5.8 mph - N/A   Overcast
12:39 PM 63.0 °F 60.4 °F 91% 30.13 in 10.0 mi East 6.9 mph - N/A   Overcast
12:57 PM 63.7 °F 59.9 °F 87% 30.12 in 10.0 mi East 9.2 mph - N/A   Overcast
1:15 PM 63.7 °F 57.6 °F 80% 30.12 in 10.0 mi ESE 8.1 mph - N/A   Overcast
1:35 PM 64.6 °F 57.7 °F 78% 30.12 in 10.0 mi ESE 9.2 mph - N/A   Overcast
1:36 PM 64.4 °F 57.6 °F 78% 30.12 in 10.0 mi ESE 6.9 mph - N/A   Overcast
1:55 PM 64.4 °F 58.5 °F 81% 30.11 in 10.0 mi ESE 8.1 mph - N/A   Overcast
2:18 PM 64.0 °F 58.1 °F 81% 30.11 in 10.0 mi East 9.2 mph - N/A   Overcast
2:35 PM 64.0 °F 57.9 °F 80% 30.10 in 10.0 mi ESE 8.1 mph - N/A   Overcast
2:55 PM 64.4 °F 58.1 °F 80% 30.10 in 10.0 mi East 8.1 mph - N/A   Overcast
3:15 PM 63.7 °F 57.9 °F 81% 30.10 in 10.0 mi East 8.1 mph - N/A   Overcast
3:39 PM 63.5 °F 57.6 °F 81% 30.10 in 10.0 mi East 8.1 mph - N/A   Overcast
3:57 PM 63.5 °F 57.6 °F 81% 30.09 in 10.0 mi East 8.1 mph - N/A   Overcast
4:15 PM 63.5 °F 57.6 °F 81% 30.09 in 10.0 mi East 9.2 mph - N/A   Overcast
4:35 PM 63.5 °F 57.4 °F 80% 30.08 in 10.0 mi ESE 8.1 mph - N/A   Overcast
4:55 PM 63.1 °F 57.4 °F 81% 30.08 in 10.0 mi East 8.1 mph - N/A   Overcast
5:00 PM 63.3 °F 57.4 °F 81% 30.08 in 10.0 mi East 6.9 mph - N/A   Overcast
5:18 PM 63.7 °F 57.7 °F 81% 30.08 in 10.0 mi East 8.1 mph - N/A   Overcast
5:36 PM 63.5 °F 57.2 °F 80% 30.08 in 10.0 mi East 9.2 mph - N/A   Overcast
5:55 PM 63.5 °F 57.4 °F 80% 30.07 in 10.0 mi East 6.9 mph - N/A   Overcast
6:15 PM 63.0 °F 57.0 °F 81% 30.07 in 10.0 mi East 8.1 mph - N/A   Overcast
6:16 PM 63.0 °F 57.0 °F 81% 30.07 in 10.0 mi East 8.1 mph - N/A   Overcast
6:39 PM 62.6 °F 57.2 °F 82% 30.07 in 10.0 mi East 6.9 mph - N/A   Overcast
6:57 PM 62.6 °F 57.6 °F 84% 30.06 in 10.0 mi East 6.9 mph - N/A   Overcast
7:35 PM 62.6 °F 57.7 °F 84% 30.07 in 10.0 mi ENE 5.8 mph - N/A   Overcast
7:36 PM 62.4 °F 57.7 °F 85% 30.07 in 10.0 mi ENE 5.8 mph - N/A   Overcast
7:55 PM 62.6 °F 58.1 °F 85% 30.08 in 10.0 mi ENE 5.8 mph - N/A   Overcast
8:18 PM 62.8 °F 58.3 °F 85% 30.07 in 10.0 mi ESE 4.6 mph - N/A   Overcast
8:36 PM 62.8 °F 58.5 °F 86% 30.06 in 10.0 mi East 5.8 mph - N/A   Overcast
8:55 PM 62.8 °F 58.3 °F 85% 30.06 in 10.0 mi East 8.1 mph - N/A   Overcast
8:56 PM 62.8 °F 58.3 °F 85% 30.06 in 10.0 mi East 8.1 mph - N/A   Overcast
9:15 PM 62.6 °F 58.8 °F 87% 30.07 in 10.0 mi East 3.5 mph - N/A   Overcast
9:39 PM 63.0 °F 59.2 °F 87% 30.07 in 10.0 mi East 4.6 mph - N/A   Overcast
9:57 PM 63.1 °F 59.4 °F 87% 30.07 in 10.0 mi East 4.6 mph - N/A   Overcast
10:15 PM 63.3 °F 59.5 °F 87% 30.07 in 10.0 mi ESE 4.6 mph - N/A   Overcast
10:55 PM 63.5 °F 60.4 °F 90% 30.08 in 10.0 mi East 3.5 mph - N/A   Overcast
11:00 PM 63.5 °F 60.4 °F 90% 30.08 in 10.0 mi Calm Calm - N/A   Overcast
11:18 PM 63.5 °F 60.8 °F 91% 30.08 in 10.0 mi ESE 3.5 mph - N/A   Overcast
11:36 PM 63.5 °F 60.8 °F 91% 30.07 in 10.0 mi Calm Calm - N/A   Overcast
11:55 PM 63.5 °F 60.8 °F 91% 30.07 in 10.0 mi ENE 3.5 mph - N/A   Overcast